createdAt,value
2018-04-11T00:00:40.003Z,9.34
2018-04-11T00:03:05.843Z,9.27
2018-04-11T00:05:31.507Z,9.23
2018-04-11T00:07:57.200Z,9.22
2018-04-11T00:10:22.867Z,9.23
2018-04-11T00:12:48.571Z,9.26
2018-04-11T00:15:14.302Z,9.29
2018-04-11T00:17:39.975Z,9.22
2018-04-11T00:20:05.651Z,9.18
2018-04-11T00:22:31.358Z,9.10
2018-04-11T00:24:57.043Z,9.03
2018-04-11T00:27:22.719Z,9.06
2018-04-11T00:29:48.395Z,9.04
2018-04-11T00:32:14.048Z,9.04
2018-04-11T00:34:39.720Z,9.07
2018-04-11T00:37:05.378Z,9.08
2018-04-11T00:39:31.071Z,9.09
2018-04-11T00:41:56.779Z,9.08
2018-04-11T00:44:22.477Z,9.15
2018-04-11T00:46:48.200Z,9.11
2018-04-11T00:49:13.911Z,9.15
2018-04-11T00:51:39.571Z,9.20
2018-04-11T00:54:05.262Z,9.04
2018-04-11T00:56:30.938Z,9.26
2018-04-11T00:58:56.655Z,9.27
2018-04-11T01:01:22.998Z,9.28
2018-04-11T01:03:48.678Z,9.26
2018-04-11T01:06:14.341Z,9.21
2018-04-11T01:08:40.080Z,9.22
2018-04-11T01:11:05.750Z,9.24
2018-04-11T01:13:31.411Z,9.29
2018-04-11T01:15:57.066Z,9.29
2018-04-11T01:18:22.753Z,9.33
2018-04-11T01:20:48.436Z,9.34
2018-04-11T01:23:14.107Z,9.24
2018-04-11T01:25:39.832Z,9.13
2018-04-11T01:28:05.495Z,9.15
2018-04-11T01:30:31.202Z,9.18
2018-04-11T01:32:56.883Z,9.20
2018-04-11T01:35:22.555Z,9.21
2018-04-11T01:37:48.431Z,9.27
2018-04-11T01:40:14.356Z,9.30
2018-04-11T01:42:40.027Z,9.23
2018-04-11T01:45:05.747Z,9.25
2018-04-11T01:47:32.041Z,9.21
2018-04-11T01:49:57.870Z,9.15
2018-04-11T01:52:23.522Z,9.10
2018-04-11T01:54:49.208Z,9.13
2018-04-11T01:57:14.917Z,9.14
2018-04-11T01:59:40.637Z,9.13
2018-04-11T02:02:06.322Z,8.98
2018-04-11T02:04:32.058Z,9.11
2018-04-11T02:06:57.714Z,9.09
2018-04-11T02:09:23.374Z,9.08
2018-04-11T02:11:49.073Z,9.11
2018-04-11T02:14:14.759Z,9.10
2018-04-11T02:16:40.538Z,9.10
2018-04-11T02:19:06.199Z,9.09
2018-04-11T02:21:31.934Z,9.05
2018-04-11T02:23:57.592Z,8.96
2018-04-11T02:26:23.282Z,9.00
2018-04-11T02:28:49.053Z,9.04
2018-04-11T02:31:14.738Z,9.06
2018-04-11T02:33:40.473Z,9.07
2018-04-11T02:36:06.161Z,9.04
2018-04-11T02:38:32.003Z,9.02
2018-04-11T02:40:57.675Z,8.98
2018-04-11T02:43:23.412Z,8.93
2018-04-11T02:45:49.314Z,8.95
2018-04-11T02:48:14.991Z,8.95
2018-04-11T02:50:40.667Z,8.98
2018-04-11T02:53:06.319Z,9.01
2018-04-11T02:55:31.974Z,8.99
2018-04-11T02:57:57.643Z,8.97
2018-04-11T03:00:23.317Z,8.94
2018-04-11T03:02:49.067Z,8.95
2018-04-11T03:05:14.752Z,9.03
2018-04-11T03:07:40.448Z,9.09
2018-04-11T03:10:06.114Z,9.08
2018-04-11T03:12:31.783Z,9.08
2018-04-11T03:14:57.460Z,9.07
2018-04-11T03:17:23.151Z,9.15
2018-04-11T03:19:48.871Z,9.25
2018-04-11T03:22:14.592Z,9.36
2018-04-11T03:24:40.283Z,9.35
2018-04-11T03:27:05.983Z,9.24
2018-04-11T03:29:31.803Z,9.23
2018-04-11T03:31:57.479Z,9.23
2018-04-11T03:34:23.168Z,9.22
2018-04-11T03:36:48.850Z,9.18
2018-04-11T03:39:14.515Z,9.11
2018-04-11T03:41:40.194Z,9.04
2018-04-11T03:44:05.879Z,9.00
2018-04-11T03:46:31.550Z,8.99
2018-04-11T03:48:57.244Z,9.11
2018-04-11T03:51:22.906Z,9.14
2018-04-11T03:53:48.699Z,9.21
2018-04-11T03:56:14.358Z,9.10
2018-04-11T03:58:40.059Z,9.10
2018-04-11T04:01:05.719Z,9.05
2018-04-11T04:03:31.699Z,8.96
2018-04-11T04:05:57.384Z,9.02
2018-04-11T04:08:23.099Z,9.01
2018-04-11T04:10:48.771Z,9.04
2018-04-11T04:13:14.460Z,8.93
2018-04-11T04:15:46.296Z,8.88
2018-04-11T04:18:18.182Z,8.87
2018-04-11T04:20:43.869Z,8.86
2018-04-11T04:23:09.574Z,8.87
2018-04-11T04:25:35.252Z,8.95
2018-04-11T04:28:00.936Z,9.01
2018-04-11T04:30:26.610Z,8.97
2018-04-11T04:32:52.337Z,8.84
2018-04-11T04:35:17.991Z,8.99
2018-04-11T04:37:43.667Z,9.05
2018-04-11T04:40:09.746Z,9.11
2018-04-11T04:42:35.425Z,9.16
2018-04-11T04:45:01.123Z,9.20
2018-04-11T04:47:26.782Z,9.18
2018-04-11T04:49:52.485Z,9.20
2018-04-11T04:52:18.155Z,9.25
2018-04-11T04:54:43.845Z,9.31
2018-04-11T04:57:09.521Z,9.37
2018-04-11T04:59:35.198Z,9.33
2018-04-11T05:02:00.858Z,9.30
2018-04-11T05:04:26.535Z,9.32
2018-04-11T05:06:52.195Z,9.39
2018-04-11T05:09:17.886Z,9.33
2018-04-11T05:11:43.574Z,9.32
2018-04-11T05:14:09.572Z,9.29
2018-04-11T05:16:35.223Z,9.29
2018-04-11T05:19:00.917Z,9.25
2018-04-11T05:21:26.911Z,9.25
2018-04-11T05:23:52.608Z,9.28
2018-04-11T05:26:18.324Z,9.34
2018-04-11T05:28:44.016Z,9.49
2018-04-11T05:31:09.905Z,9.51
2018-04-11T05:33:35.579Z,9.59
2018-04-11T05:36:01.266Z,9.58
2018-04-11T05:38:26.923Z,9.57
2018-04-11T05:40:52.614Z,9.36
2018-04-11T05:43:18.271Z,9.21
2018-04-11T05:45:44.000Z,9.09
2018-04-11T05:48:09.654Z,9.15
2018-04-11T05:50:35.431Z,9.32
2018-04-11T05:53:01.089Z,9.45
2018-04-11T05:55:26.763Z,9.44
2018-04-11T05:57:52.415Z,9.49
2018-04-11T06:00:18.117Z,9.45
2018-04-11T06:02:43.784Z,9.47
2018-04-11T06:05:09.459Z,9.46
2018-04-11T06:07:35.123Z,9.50
2018-04-11T06:10:00.803Z,9.50
2018-04-11T06:12:26.463Z,9.53
2018-04-11T06:14:55.088Z,9.36
2018-04-11T06:17:20.758Z,9.32
2018-04-11T06:19:46.431Z,9.35
2018-04-11T06:22:12.135Z,9.27
2018-04-11T06:24:37.795Z,9.37
2018-04-11T06:27:03.516Z,9.37
2018-04-11T06:29:29.221Z,9.48
2018-04-11T06:31:54.910Z,9.43
2018-04-11T06:34:20.593Z,9.45
2018-04-11T06:36:46.298Z,9.37
2018-04-11T06:39:11.963Z,9.34
2018-04-11T06:41:37.655Z,9.34
2018-04-11T06:44:03.317Z,9.34
2018-04-11T06:46:29.071Z,9.41
2018-04-11T06:48:54.759Z,9.48
2018-04-11T06:51:20.446Z,9.49
2018-04-11T06:53:46.102Z,9.63
2018-04-11T06:56:11.771Z,9.68
2018-04-11T06:58:37.422Z,9.71
2018-04-11T07:01:03.127Z,9.86
2018-04-11T07:03:28.819Z,9.99
2018-04-11T07:05:54.474Z,9.96
2018-04-11T07:08:20.175Z,9.92
2018-04-11T07:10:46.117Z,9.98
2018-04-11T07:13:11.842Z,9.86
2018-04-11T07:15:37.494Z,10.01
2018-04-11T07:18:03.175Z,10.08
2018-04-11T07:20:28.846Z,10.10
2018-04-11T07:22:54.512Z,10.08
2018-04-11T07:25:20.181Z,10.06
2018-04-11T07:27:47.347Z,10.01
2018-04-11T07:30:13.012Z,10.04
2018-04-11T07:32:38.708Z,10.17
2018-04-11T07:35:04.369Z,10.33
2018-04-11T07:37:30.072Z,10.36
2018-04-11T07:39:55.727Z,10.45
2018-04-11T07:42:21.412Z,10.46
2018-04-11T07:44:47.058Z,10.53
2018-04-11T07:47:12.813Z,10.55
2018-04-11T07:49:38.486Z,10.58
2018-04-11T07:52:04.187Z,10.65
2018-04-11T07:54:29.888Z,10.69
2018-04-11T07:56:55.538Z,10.71
2018-04-11T07:59:21.251Z,10.78
2018-04-11T08:01:46.919Z,10.83
2018-04-11T08:04:12.611Z,10.90
2018-04-11T08:06:38.274Z,11.03
2018-04-11T08:09:04.048Z,11.09
2018-04-11T08:11:29.734Z,11.05
2018-04-11T08:13:55.435Z,11.04
2018-04-11T08:16:21.097Z,10.93
2018-04-11T08:18:46.781Z,10.86
2018-04-11T08:21:12.498Z,10.90
2018-04-11T08:23:38.116Z,10.93
2018-04-11T08:26:04.147Z,10.80
2018-04-11T08:28:29.821Z,10.78
2018-04-11T08:30:55.566Z,10.87
2018-04-11T08:33:21.256Z,10.90
2018-04-11T08:35:46.915Z,11.08
2018-04-11T08:38:12.612Z,11.23
2018-04-11T08:40:38.331Z,11.19
2018-04-11T08:43:04.002Z,11.07
2018-04-11T08:45:29.695Z,11.03
2018-04-11T08:47:55.379Z,11.06
2018-04-11T08:50:21.066Z,11.07
2018-04-11T08:52:46.723Z,11.12
2018-04-11T08:55:12.425Z,11.22
2018-04-11T08:57:38.148Z,11.33
2018-04-11T09:00:03.847Z,11.57
2018-04-11T09:02:29.508Z,11.83
2018-04-11T09:04:55.176Z,12.01
2018-04-11T09:07:20.854Z,12.11
2018-04-11T09:09:46.569Z,11.86
2018-04-11T09:12:12.253Z,11.96
2018-04-11T09:14:37.971Z,12.14
2018-04-11T09:17:03.682Z,12.26
2018-04-11T09:19:29.400Z,12.38
2018-04-11T09:21:55.113Z,12.61
2018-04-11T09:24:20.808Z,12.83
2018-04-11T09:26:46.498Z,12.96
2018-04-11T09:29:12.166Z,13.02
2018-04-11T09:31:37.891Z,12.91
2018-04-11T09:34:03.599Z,12.76
2018-04-11T09:36:29.379Z,12.74
2018-04-11T09:38:55.060Z,12.70
2018-04-11T09:41:20.756Z,12.62
2018-04-11T09:43:46.443Z,12.61
2018-04-11T09:46:12.176Z,12.84
2018-04-11T09:48:37.927Z,12.94
2018-04-11T09:51:03.630Z,12.88
2018-04-11T09:53:29.332Z,12.88
2018-04-11T09:55:55.045Z,13.00
2018-04-11T09:58:20.694Z,13.11
2018-04-11T10:00:52.395Z,13.23
2018-04-11T10:03:18.111Z,13.42
2018-04-11T10:05:43.770Z,13.44
2018-04-11T10:08:10.307Z,13.28
2018-04-11T10:10:35.978Z,13.19
2018-04-11T10:13:01.651Z,13.18
2018-04-11T10:15:27.329Z,13.19
2018-04-11T10:17:53.019Z,13.16
2018-04-11T10:20:18.686Z,13.08
2018-04-11T10:22:44.400Z,13.06
2018-04-11T10:25:10.079Z,13.19
2018-04-11T10:27:35.761Z,13.26
2018-04-11T10:30:01.573Z,13.10
2018-04-11T10:32:27.261Z,12.98
2018-04-11T10:34:52.944Z,12.68
2018-04-11T10:37:18.642Z,12.48
2018-04-11T10:39:44.452Z,12.39
2018-04-11T10:42:10.055Z,12.37
2018-04-11T10:44:35.740Z,12.48
2018-04-11T10:47:01.414Z,12.48
2018-04-11T10:49:27.379Z,12.52
2018-04-11T10:51:53.070Z,12.80
2018-04-11T10:54:18.723Z,13.03
2018-04-11T10:56:44.416Z,13.18
2018-04-11T10:59:10.074Z,13.23
2018-04-11T11:01:35.778Z,13.16
2018-04-11T11:04:01.531Z,13.30
2018-04-11T11:06:27.192Z,13.27
2018-04-11T11:08:52.843Z,13.26
2018-04-11T11:11:18.500Z,13.28
2018-04-11T11:13:44.171Z,13.29
2018-04-11T11:16:09.832Z,13.21
2018-04-11T11:18:35.855Z,13.25
2018-04-11T11:21:01.519Z,13.33
2018-04-11T11:23:27.220Z,13.45
2018-04-11T11:25:53.799Z,13.40
2018-04-11T11:28:19.501Z,13.35
2018-04-11T11:30:45.204Z,13.40
2018-04-11T11:33:10.883Z,13.59
2018-04-11T11:35:36.574Z,13.64
2018-04-11T11:38:02.260Z,13.69
2018-04-11T11:40:27.932Z,13.66
2018-04-11T11:42:53.626Z,13.59
2018-04-11T11:45:19.351Z,13.66
2018-04-11T11:47:45.081Z,13.74
2018-04-11T11:50:10.755Z,13.94
2018-04-11T11:52:36.432Z,14.01
2018-04-11T11:55:02.135Z,14.05
2018-04-11T11:57:27.846Z,13.87
2018-04-11T11:59:53.535Z,13.56
2018-04-11T12:02:19.233Z,13.43
2018-04-11T12:04:44.875Z,13.31
2018-04-11T12:07:10.540Z,13.35
2018-04-11T12:09:36.234Z,13.54
2018-04-11T12:12:01.891Z,13.60
2018-04-11T12:14:27.568Z,13.67
2018-04-11T12:16:53.239Z,13.56
2018-04-11T12:19:18.914Z,13.42
2018-04-11T12:21:44.623Z,13.34
2018-04-11T12:24:10.336Z,13.34
2018-04-11T12:26:36.006Z,13.41
2018-04-11T12:29:01.687Z,13.47
2018-04-11T12:31:27.343Z,13.58
2018-04-11T12:33:53.025Z,13.49
2018-04-11T12:36:19.034Z,13.45
2018-04-11T12:38:44.725Z,13.49
2018-04-11T12:41:10.479Z,13.61
2018-04-11T12:43:36.143Z,13.82
2018-04-11T12:46:01.830Z,13.94
2018-04-11T12:48:27.527Z,13.77
2018-04-11T12:50:53.209Z,13.67
2018-04-11T12:53:18.903Z,13.45
2018-04-11T12:55:44.651Z,13.26
2018-04-11T12:58:10.295Z,13.20
2018-04-11T13:00:36.263Z,13.25
2018-04-11T13:03:01.931Z,13.26
2018-04-11T13:05:27.639Z,13.25
2018-04-11T13:07:53.311Z,13.15
2018-04-11T13:10:19.003Z,13.07
2018-04-11T13:12:44.682Z,13.09
2018-04-11T13:15:10.719Z,13.21
2018-04-11T13:17:36.326Z,13.22
2018-04-11T13:20:01.999Z,13.18
2018-04-11T13:22:27.658Z,12.99
2018-04-11T13:24:53.359Z,12.75
2018-04-11T13:27:19.068Z,12.70
2018-04-11T13:29:44.731Z,12.85
2018-04-11T13:32:10.431Z,12.88
2018-04-11T13:34:36.099Z,12.70
2018-04-11T13:37:01.794Z,12.72
2018-04-11T13:39:27.485Z,12.49
2018-04-11T13:41:53.171Z,12.41
2018-04-11T13:44:18.876Z,12.39
2018-04-11T13:46:44.567Z,12.46
2018-04-11T13:49:10.258Z,12.41
2018-04-11T13:51:35.970Z,12.51
2018-04-11T13:54:01.671Z,12.63
2018-04-11T13:56:27.605Z,12.53
2018-04-11T13:58:53.283Z,12.51
2018-04-11T14:01:19.007Z,12.47
2018-04-11T14:03:44.698Z,12.49
2018-04-11T14:06:10.387Z,12.40
2018-04-11T14:08:36.066Z,12.28
2018-04-11T14:11:01.743Z,12.31
2018-04-11T14:13:27.499Z,12.20
2018-04-11T14:15:53.199Z,12.24
2018-04-11T14:18:18.892Z,12.28
2018-04-11T14:20:44.567Z,12.24
2018-04-11T14:23:10.268Z,12.24
2018-04-11T14:25:35.970Z,12.35
2018-04-11T14:28:01.849Z,12.38
2018-04-11T14:30:27.579Z,12.10
2018-04-11T14:32:53.259Z,12.16
2018-04-11T14:35:18.972Z,12.05
2018-04-11T14:37:44.719Z,12.07
2018-04-11T14:40:10.409Z,12.07
2018-04-11T14:42:36.194Z,12.02
2018-04-11T14:45:01.933Z,12.08
2018-04-11T14:47:27.630Z,12.17
2018-04-11T14:49:53.700Z,12.21
2018-04-11T14:52:19.381Z,12.16
2018-04-11T14:54:45.347Z,12.25
2018-04-11T14:57:11.010Z,12.24
2018-04-11T14:59:36.772Z,12.02
2018-04-11T15:02:02.471Z,12.05
2018-04-11T15:04:28.411Z,12.15
2018-04-11T15:06:54.154Z,12.07
2018-04-11T15:09:19.806Z,11.99
2018-04-11T15:11:45.505Z,12.03
2018-04-11T15:14:11.210Z,12.05
2018-04-11T15:16:36.890Z,12.07
2018-04-11T15:19:02.584Z,12.07
2018-04-11T15:21:28.251Z,12.09
2018-04-11T15:23:53.967Z,12.20
2018-04-11T15:26:19.649Z,12.23
2018-04-11T15:28:45.309Z,12.21
2018-04-11T15:31:11.045Z,12.10
2018-04-11T15:33:36.708Z,12.01
2018-04-11T15:36:02.713Z,11.98
2018-04-11T15:38:28.381Z,11.89
2018-04-11T15:40:54.112Z,11.89
2018-04-11T15:43:19.844Z,11.78
2018-04-11T15:45:45.572Z,11.86
2018-04-11T15:48:11.254Z,12.03
2018-04-11T15:50:36.951Z,12.01
2018-04-11T15:53:02.615Z,12.08
2018-04-11T15:55:28.308Z,12.15
2018-04-11T15:57:54.027Z,12.20
2018-04-11T16:00:19.739Z,12.27
2018-04-11T16:02:45.399Z,12.29
2018-04-11T16:05:11.103Z,12.09
2018-04-11T16:07:36.770Z,12.10
2018-04-11T16:10:02.523Z,12.05
2018-04-11T16:12:28.245Z,11.84
2018-04-11T16:14:53.923Z,11.85
2018-04-11T16:17:19.622Z,11.91
2018-04-11T16:19:45.283Z,11.88
2018-04-11T16:22:10.971Z,11.87
2018-04-11T16:24:36.636Z,11.95
2018-04-11T16:27:02.317Z,11.96
2018-04-11T16:29:27.991Z,11.86
2018-04-11T16:31:53.739Z,11.70
2018-04-11T16:34:19.435Z,11.51
2018-04-11T16:36:45.110Z,11.39
2018-04-11T16:39:10.774Z,11.29
2018-04-11T16:41:36.452Z,11.31
2018-04-11T16:44:02.128Z,11.17
2018-04-11T16:46:27.851Z,11.10
2018-04-11T16:48:53.661Z,11.21
2018-04-11T16:51:19.396Z,11.20
2018-04-11T16:53:45.102Z,11.18
2018-04-11T16:56:10.771Z,11.10
2018-04-11T16:58:36.699Z,11.00
2018-04-11T17:01:02.696Z,10.98
2018-04-11T17:03:28.377Z,10.89
2018-04-11T17:05:54.071Z,10.75
2018-04-11T17:08:19.774Z,10.72
2018-04-11T17:10:45.447Z,10.84
2018-04-11T17:13:11.146Z,10.95
2018-04-11T17:15:36.816Z,11.09
2018-04-11T17:18:02.536Z,10.97
2018-04-11T17:20:34.239Z,10.79
2018-04-11T17:23:06.030Z,10.77
2018-04-11T17:28:39.425Z,10.72
2018-04-11T17:31:14.144Z,10.63
2018-04-11T17:33:39.849Z,10.61
2018-04-11T17:36:05.531Z,10.50
2018-04-11T17:38:31.203Z,10.51
2018-04-11T17:40:56.904Z,10.34
2018-04-11T17:43:22.620Z,10.40
2018-04-11T17:45:48.331Z,10.36
2018-04-11T17:48:14.016Z,10.46
2018-04-11T17:50:39.718Z,10.60
2018-04-11T17:53:05.383Z,10.52
2018-04-11T17:55:31.323Z,10.53
2018-04-11T17:57:57.002Z,10.57
2018-04-11T18:00:22.661Z,10.50
2018-04-11T18:02:48.366Z,10.40
2018-04-11T18:05:14.012Z,10.34
2018-04-11T18:07:39.719Z,10.28
2018-04-11T18:10:05.505Z,10.28
2018-04-11T18:12:31.183Z,10.27
2018-04-11T18:14:56.867Z,10.28
2018-04-11T18:20:08.095Z,10.27
2018-04-11T18:22:33.760Z,10.19
2018-04-11T18:24:59.447Z,10.16
2018-04-11T18:27:25.107Z,10.10
2018-04-11T18:29:54.871Z,10.02
2018-04-11T18:32:20.563Z,9.99
2018-04-11T18:34:46.227Z,9.96
2018-04-11T18:37:12.108Z,10.01
2018-04-11T18:39:37.830Z,10.06
2018-04-11T18:42:05.347Z,10.15
2018-04-11T18:44:31.052Z,10.11
2018-04-11T18:46:56.731Z,10.06
2018-04-11T18:49:22.411Z,10.01
2018-04-11T18:51:48.096Z,9.97
2018-04-11T18:54:13.755Z,9.94
2018-04-11T18:56:39.475Z,9.94
2018-04-11T18:59:05.140Z,10.02
2018-04-11T19:01:31.050Z,10.00
2018-04-11T19:03:56.728Z,9.99
2018-04-11T19:06:22.415Z,10.00
2018-04-11T19:08:48.619Z,9.99
2018-04-11T19:11:14.308Z,9.98
2018-04-11T19:13:39.975Z,9.99
2018-04-11T19:16:05.658Z,9.97
2018-04-11T19:18:31.325Z,9.90
2018-04-11T19:20:57.027Z,9.93
2018-04-11T19:23:22.687Z,9.96
2018-04-11T19:25:48.356Z,10.03
2018-04-11T19:28:14.044Z,10.12
2018-04-11T19:30:39.803Z,10.16
2018-04-11T19:33:05.467Z,10.19
2018-04-11T19:35:31.160Z,10.17
2018-04-11T19:37:56.869Z,10.22
2018-04-11T19:40:22.527Z,10.19
2018-04-11T19:42:48.189Z,10.16
2018-04-11T19:45:13.886Z,10.13
2018-04-11T19:47:39.551Z,10.19
2018-04-11T19:50:05.340Z,10.27
2018-04-11T19:52:30.986Z,10.28
2018-04-11T19:54:56.700Z,10.31
2018-04-11T19:57:22.376Z,10.29
2018-04-11T19:59:48.075Z,10.27
2018-04-11T20:02:13.735Z,10.30
2018-04-11T20:04:39.415Z,10.32
2018-04-11T20:07:05.121Z,10.34
2018-04-11T20:09:30.803Z,10.36
2018-04-11T20:11:56.547Z,10.37
2018-04-11T20:14:22.235Z,10.32
2018-04-11T20:16:47.922Z,10.32
2018-04-11T20:19:13.592Z,10.32
2018-04-11T20:21:39.263Z,10.13
2018-04-11T20:24:04.936Z,10.14
2018-04-11T20:26:30.663Z,10.08
2018-04-11T20:28:56.780Z,10.02
2018-04-11T20:31:22.881Z,10.10
2018-04-11T20:33:50.154Z,10.21
2018-04-11T20:36:15.862Z,10.28
2018-04-11T20:38:41.572Z,10.18
2018-04-11T20:41:07.282Z,10.14
2018-04-11T20:43:33.018Z,10.18
2018-04-11T20:45:58.721Z,10.19
2018-04-11T20:48:24.421Z,10.09
2018-04-11T20:50:50.080Z,9.95
2018-04-11T20:53:15.765Z,9.97
2018-04-11T20:55:41.439Z,10.04
2018-04-11T20:58:07.126Z,10.07
2018-04-11T21:00:32.799Z,10.04
2018-04-11T21:02:58.457Z,9.94
2018-04-11T21:05:24.156Z,9.89
2018-04-11T21:07:49.835Z,9.89
2018-04-11T21:10:15.503Z,9.84
2018-04-11T21:12:41.175Z,9.81
2018-04-11T21:15:06.868Z,9.70
2018-04-11T21:17:32.549Z,9.61
2018-04-11T21:19:58.231Z,9.62
2018-04-11T21:22:23.901Z,9.67
2018-04-11T21:24:49.642Z,9.61
2018-04-11T21:27:15.329Z,9.66
2018-04-11T21:29:41.027Z,9.71
2018-04-11T21:32:06.735Z,9.64
2018-04-11T21:34:32.395Z,9.59
2018-04-11T21:36:58.068Z,9.50
2018-04-11T21:39:23.774Z,9.43
2018-04-11T21:41:49.510Z,9.43
2018-04-11T21:44:15.177Z,9.46
2018-04-11T21:46:40.882Z,9.52
2018-04-11T21:49:06.557Z,9.44
2018-04-11T21:51:32.224Z,9.35
2018-04-11T21:53:57.894Z,9.37
2018-04-11T21:56:23.567Z,9.24
2018-04-11T21:58:49.245Z,9.14
2018-04-11T22:01:14.907Z,9.05
2018-04-11T22:03:40.564Z,8.84
2018-04-11T22:06:06.246Z,8.87
2018-04-11T22:08:31.943Z,8.78
2018-04-11T22:10:57.638Z,8.71
2018-04-11T22:13:23.302Z,8.67
2018-04-11T22:15:48.979Z,8.64
2018-04-11T22:18:14.658Z,8.67
2018-04-11T22:20:40.342Z,8.65
2018-04-11T22:23:06.047Z,8.59
2018-04-11T22:25:31.705Z,8.62
2018-04-11T22:27:57.384Z,8.60
2018-04-11T22:30:23.040Z,8.60
2018-04-11T22:32:48.743Z,8.57
2018-04-11T22:35:14.423Z,8.59
2018-04-11T22:37:40.082Z,8.55
2018-04-11T22:40:05.779Z,8.51
2018-04-11T22:42:31.466Z,8.48
2018-04-11T22:44:57.139Z,8.48
2018-04-11T22:47:22.838Z,8.46
2018-04-11T22:49:48.535Z,8.41
2018-04-11T22:52:14.219Z,8.39
2018-04-11T22:54:39.928Z,8.43
2018-04-11T22:57:05.599Z,8.32
2018-04-11T22:59:31.331Z,8.22
2018-04-11T23:01:57.359Z,8.20
2018-04-11T23:04:23.044Z,8.07
2018-04-11T23:06:48.771Z,8.05
2018-04-11T23:09:14.433Z,8.00
2018-04-11T23:11:40.123Z,7.96
2018-04-11T23:14:05.804Z,7.96
2018-04-11T23:16:31.502Z,7.99
2018-04-11T23:18:57.183Z,7.85
2018-04-11T23:21:22.861Z,7.90
2018-04-11T23:23:48.565Z,7.84
2018-04-11T23:26:14.231Z,7.80
2018-04-11T23:28:39.908Z,7.84
2018-04-11T23:31:05.617Z,7.81
2018-04-11T23:36:28.141Z,7.76
2018-04-11T23:38:53.826Z,7.83
2018-04-11T23:41:19.535Z,7.80
2018-04-11T23:43:45.210Z,7.87
2018-04-11T23:46:11.131Z,7.85
2018-04-11T23:48:36.811Z,7.86
2018-04-11T23:51:02.495Z,7.87
2018-04-11T23:53:28.158Z,7.91
2018-04-11T23:55:53.839Z,7.95
2018-04-11T23:58:19.514Z,7.99
